createdAt,value
2019-04-16T00:00:05.557Z,53.00
2019-04-16T00:01:08.152Z,53.10
2019-04-16T00:02:07.737Z,53.10
2019-04-16T00:03:05.848Z,53.00
2019-04-16T00:04:05.088Z,53.00
2019-04-16T00:05:07.631Z,53.00
2019-04-16T00:06:08.118Z,52.90
2019-04-16T00:07:07.541Z,53.00
2019-04-16T00:08:26.931Z,53.00
2019-04-16T00:09:05.960Z,53.20
2019-04-16T00:10:07.611Z,53.50
2019-04-16T00:11:05.606Z,53.50
2019-04-16T00:12:05.781Z,53.60
2019-04-16T00:13:06.063Z,53.70
2019-04-16T00:14:10.410Z,53.90
2019-04-16T00:15:05.577Z,53.90
2019-04-16T00:16:05.756Z,54.10
2019-04-16T00:17:05.840Z,54.10
2019-04-16T00:18:05.975Z,54.20
2019-04-16T00:19:06.869Z,54.20
2019-04-16T00:20:10.936Z,54.20
2019-04-16T00:21:10.548Z,54.20
2019-04-16T00:22:05.842Z,54.40
2019-04-16T00:23:08.414Z,54.50
2019-04-16T00:24:05.395Z,54.60
2019-04-16T00:25:08.103Z,54.70
2019-04-16T00:26:05.164Z,54.70
2019-04-16T00:27:05.348Z,54.80
2019-04-16T00:28:05.401Z,55.10
2019-04-16T00:29:05.510Z,55.00
2019-04-16T00:30:06.120Z,55.00
2019-04-16T00:31:06.266Z,55.30
2019-04-16T00:32:09.653Z,55.30
2019-04-16T00:33:11.550Z,55.20
2019-04-16T00:34:05.657Z,55.20
2019-04-16T00:35:05.750Z,55.30
2019-04-16T00:36:05.966Z,55.40
2019-04-16T00:37:05.099Z,55.40
2019-04-16T00:38:05.226Z,55.30
2019-04-16T00:39:05.339Z,55.30
2019-04-16T00:40:05.598Z,55.40
2019-04-16T00:41:10.807Z,55.30
2019-04-16T00:42:05.811Z,55.30
2019-04-16T00:43:06.183Z,55.40
2019-04-16T00:44:05.254Z,55.40
2019-04-16T00:45:05.536Z,55.40
2019-04-16T00:46:12.149Z,55.30
2019-04-16T00:47:05.236Z,55.40
2019-04-16T00:48:05.382Z,55.40
2019-04-16T00:49:08.148Z,55.40
2019-04-16T00:50:07.801Z,55.90
2019-04-16T00:51:05.832Z,55.90
2019-04-16T00:52:07.447Z,56.20
2019-04-16T00:53:09.268Z,56.70
2019-04-16T00:54:11.300Z,56.50
2019-04-16T00:55:08.050Z,56.90
2019-04-16T00:56:05.225Z,56.90
2019-04-16T00:57:07.940Z,56.70
2019-04-16T00:58:08.579Z,56.80
2019-04-16T00:59:05.589Z,56.80
2019-04-16T01:00:05.730Z,56.70
2019-04-16T01:01:08.283Z,56.40
2019-04-16T01:02:05.385Z,56.40
2019-04-16T01:03:07.631Z,56.60
2019-04-16T01:04:06.388Z,56.80
2019-04-16T01:05:07.995Z,57.00
2019-04-16T01:06:08.506Z,57.00
2019-04-16T01:07:05.708Z,57.10
2019-04-16T01:08:08.304Z,57.00
2019-04-16T01:09:05.254Z,57.00
2019-04-16T01:10:07.855Z,57.10
2019-04-16T01:11:08.453Z,57.00
2019-04-16T01:12:05.532Z,57.00
2019-04-16T01:13:05.495Z,57.00
2019-04-16T01:14:05.644Z,56.90
2019-04-16T01:15:05.280Z,57.00
2019-04-16T01:16:06.009Z,57.00
2019-04-16T01:17:05.830Z,57.00
2019-04-16T01:18:08.923Z,57.00
2019-04-16T01:19:11.114Z,56.90
2019-04-16T01:20:13.499Z,57.30
2019-04-16T01:21:05.533Z,57.30
2019-04-16T01:22:08.302Z,57.60
2019-04-16T01:23:05.533Z,51.20
2019-04-16T01:24:08.205Z,57.50
2019-04-16T01:25:05.136Z,57.50
2019-04-16T01:26:05.447Z,57.50
2019-04-16T01:27:05.712Z,57.60
2019-04-16T01:28:08.490Z,57.80
2019-04-16T01:29:05.517Z,57.80
2019-04-16T01:30:07.111Z,57.80
2019-04-16T01:31:08.748Z,57.80
2019-04-16T01:32:12.017Z,58.00
2019-04-16T01:33:05.347Z,58.10
2019-04-16T01:34:08.036Z,58.20
2019-04-16T01:35:05.052Z,58.20
2019-04-16T01:36:05.334Z,58.40
2019-04-16T01:37:05.441Z,58.50
2019-04-16T01:38:07.994Z,58.80
2019-04-16T01:39:18.179Z,58.80
2019-04-16T01:40:07.984Z,58.90
2019-04-16T01:41:05.991Z,58.90
2019-04-16T01:42:07.602Z,59.20
2019-04-16T01:43:05.496Z,59.20
2019-04-16T01:44:10.731Z,58.90
2019-04-16T01:45:05.712Z,59.00
2019-04-16T01:46:08.696Z,58.90
2019-04-16T01:47:05.836Z,58.90
2019-04-16T01:48:08.718Z,58.90
2019-04-16T01:49:11.201Z,59.00
2019-04-16T01:50:05.558Z,59.10
2019-04-16T01:51:16.198Z,58.90
2019-04-16T01:52:07.931Z,59.00
2019-04-16T01:53:07.529Z,59.10
2019-04-16T01:54:05.728Z,59.10
2019-04-16T01:55:08.313Z,59.20
2019-04-16T01:56:07.909Z,59.10
2019-04-16T01:57:05.967Z,59.10
2019-04-16T01:58:07.597Z,59.30
2019-04-16T01:59:06.571Z,59.30
2019-04-16T02:00:08.824Z,59.40
2019-04-16T02:01:12.212Z,59.40
2019-04-16T02:02:07.822Z,59.50
2019-04-16T02:03:05.768Z,59.50
2019-04-16T02:04:08.605Z,59.50
2019-04-16T02:05:08.103Z,59.50
2019-04-16T02:06:07.750Z,59.50
2019-04-16T02:07:10.717Z,59.50
2019-04-16T02:08:05.628Z,59.50
2019-04-16T02:09:05.141Z,59.50
2019-04-16T02:10:08.349Z,59.50
2019-04-16T02:11:10.999Z,59.50
2019-04-16T02:12:14.098Z,59.40
2019-04-16T02:13:05.170Z,59.40
2019-04-16T02:14:05.286Z,59.40
2019-04-16T02:15:05.389Z,59.50
2019-04-16T02:16:05.495Z,59.70
2019-04-16T02:17:05.653Z,59.80
2019-04-16T02:18:08.567Z,60.10
2019-04-16T02:19:05.587Z,60.10
2019-04-16T02:20:07.541Z,60.20
2019-04-16T02:21:11.122Z,60.20
2019-04-16T02:22:05.180Z,60.10
2019-04-16T02:23:05.438Z,60.10
2019-04-16T02:24:08.024Z,60.50
2019-04-16T02:25:05.945Z,60.50
2019-04-16T02:26:04.987Z,60.40
2019-04-16T02:27:07.662Z,60.70
2019-04-16T02:28:08.455Z,60.90
2019-04-16T02:29:07.954Z,60.80
2019-04-16T02:30:08.710Z,60.90
2019-04-16T02:31:16.194Z,60.90
2019-04-16T02:32:05.565Z,60.80
2019-04-16T02:33:05.699Z,60.80
2019-04-16T02:34:08.361Z,60.80
2019-04-16T02:35:05.487Z,60.90
2019-04-16T02:36:05.665Z,60.90
2019-04-16T02:37:08.320Z,60.90
2019-04-16T02:38:13.532Z,60.90
2019-04-16T02:39:06.052Z,60.90
2019-04-16T02:40:05.216Z,61.00
2019-04-16T02:41:05.318Z,61.20
2019-04-16T02:42:10.503Z,61.30
2019-04-16T02:43:08.259Z,61.20
2019-04-16T02:44:05.909Z,61.20
2019-04-16T02:45:07.866Z,61.30
2019-04-16T02:46:08.473Z,61.30
2019-04-16T02:47:09.277Z,61.20
2019-04-16T02:48:05.479Z,61.30
2019-04-16T02:49:05.693Z,61.10
2019-04-16T02:50:08.374Z,61.70
2019-04-16T02:51:08.652Z,61.70
2019-04-16T02:52:05.803Z,61.80
2019-04-16T02:53:06.265Z,61.70
2019-04-16T02:54:07.893Z,61.60
2019-04-16T02:55:11.317Z,61.60
2019-04-16T02:56:05.887Z,61.90
2019-04-16T02:57:07.663Z,62.00
2019-04-16T02:58:05.935Z,62.00
2019-04-16T02:59:12.357Z,62.00
2019-04-16T03:00:05.379Z,62.10
2019-04-16T03:01:07.935Z,61.90
2019-04-16T03:02:05.889Z,61.90
2019-04-16T03:03:05.927Z,61.90
2019-04-16T03:04:07.957Z,61.90
2019-04-16T03:05:08.437Z,61.90
2019-04-16T03:06:05.681Z,61.90
2019-04-16T03:07:06.086Z,61.90
2019-04-16T03:08:06.293Z,61.90
2019-04-16T03:09:09.820Z,61.80
2019-04-16T03:10:04.968Z,61.80
2019-04-16T03:11:05.060Z,61.90
2019-04-16T03:12:05.280Z,61.90
2019-04-16T03:13:05.524Z,61.90
2019-04-16T03:14:05.634Z,61.80
2019-04-16T03:15:05.703Z,61.90
2019-04-16T03:16:07.698Z,61.90
2019-04-16T03:17:11.446Z,61.90
2019-04-16T03:18:08.341Z,61.90
2019-04-16T03:19:05.421Z,61.90
2019-04-16T03:20:08.064Z,61.70
2019-04-16T03:21:05.050Z,61.70
2019-04-16T03:22:07.767Z,61.60
2019-04-16T03:23:08.408Z,61.80
2019-04-16T03:24:09.515Z,61.90
2019-04-16T03:25:14.221Z,61.90
2019-04-16T03:26:08.215Z,61.90
2019-04-16T03:27:05.900Z,61.90
2019-04-16T03:28:05.063Z,61.90
2019-04-16T03:29:10.252Z,61.80
2019-04-16T03:30:06.598Z,61.80
2019-04-16T03:32:06.207Z,61.90
2019-04-16T03:33:14.751Z,61.90
2019-04-16T03:34:05.712Z,61.80
2019-04-16T03:35:08.375Z,62.00
2019-04-16T03:36:05.673Z,62.00
2019-04-16T03:37:05.864Z,61.90
2019-04-16T03:38:06.805Z,61.90
2019-04-16T03:39:05.975Z,61.80
2019-04-16T03:40:18.589Z,61.80
2019-04-16T03:41:08.335Z,61.70
2019-04-16T03:42:05.267Z,61.60
2019-04-16T03:43:05.307Z,61.70
2019-04-16T03:44:05.640Z,61.70
2019-04-16T03:45:10.310Z,61.60
2019-04-16T03:46:13.994Z,61.90
2019-04-16T03:47:07.834Z,61.60
2019-04-16T03:48:08.536Z,61.60
2019-04-16T03:49:08.209Z,61.70
2019-04-16T03:50:05.263Z,61.70
2019-04-16T03:51:10.711Z,62.00
2019-04-16T03:52:09.882Z,62.10
2019-04-16T03:53:07.531Z,62.20
2019-04-16T03:54:06.304Z,62.20
2019-04-16T03:55:08.141Z,62.20
2019-04-16T03:56:05.220Z,62.20
2019-04-16T03:57:05.392Z,62.10
2019-04-16T03:58:07.611Z,62.10
2019-04-16T03:59:12.023Z,62.10
2019-04-16T04:00:05.499Z,62.10
2019-04-16T04:01:05.580Z,62.10
2019-04-16T04:02:05.680Z,62.10
2019-04-16T04:03:11.041Z,62.20
2019-04-16T04:04:07.566Z,62.20
2019-04-16T04:05:07.835Z,62.20
2019-04-16T04:06:08.264Z,62.20
2019-04-16T04:07:13.246Z,62.00
2019-04-16T04:08:10.451Z,62.10
2019-04-16T04:09:05.868Z,62.20
2019-04-16T04:10:11.167Z,62.40
2019-04-16T04:11:10.663Z,62.40
2019-04-16T04:12:14.601Z,62.20
2019-04-16T04:13:06.137Z,62.20
2019-04-16T04:14:05.356Z,62.20
2019-04-16T04:15:08.081Z,62.30
2019-04-16T04:16:05.147Z,62.30
2019-04-16T04:17:07.862Z,62.50
2019-04-16T04:18:12.457Z,62.50
2019-04-16T04:19:06.058Z,62.80
2019-04-16T04:20:05.235Z,62.80
2019-04-16T04:21:08.086Z,62.70
2019-04-16T04:22:05.163Z,62.70
2019-04-16T04:23:05.577Z,62.70
2019-04-16T04:24:05.825Z,62.60
2019-04-16T04:25:08.767Z,62.90
2019-04-16T04:26:10.167Z,62.90
2019-04-16T04:27:20.993Z,63.10
2019-04-16T04:28:05.136Z,63.10
2019-04-16T04:29:06.732Z,63.10
2019-04-16T04:30:08.460Z,63.10
2019-04-16T04:31:05.550Z,59.90
2019-04-16T04:32:08.426Z,63.10
2019-04-16T04:33:10.350Z,63.10
2019-04-16T04:34:05.565Z,63.20
2019-04-16T04:35:05.729Z,63.20
2019-04-16T04:36:08.603Z,63.20
2019-04-16T04:37:05.707Z,63.20
2019-04-16T04:38:08.457Z,63.40
2019-04-16T04:39:14.663Z,63.40
2019-04-16T04:40:05.074Z,63.60
2019-04-16T04:41:08.478Z,63.60
2019-04-16T04:42:08.044Z,63.80
2019-04-16T04:43:07.731Z,64.00
2019-04-16T04:44:05.714Z,64.10
2019-04-16T04:45:10.014Z,63.90
2019-04-16T04:46:05.277Z,63.90
2019-04-16T04:47:05.432Z,64.00
2019-04-16T04:48:05.489Z,64.10
2019-04-16T04:49:05.847Z,64.10
2019-04-16T04:50:05.093Z,64.40
2019-04-16T04:51:09.043Z,64.40
2019-04-16T04:52:05.306Z,64.30
2019-04-16T04:53:05.594Z,64.50
2019-04-16T04:54:05.667Z,64.50
2019-04-16T04:55:05.761Z,64.70
2019-04-16T04:56:05.830Z,65.10
2019-04-16T04:57:05.471Z,65.20
2019-04-16T04:58:05.593Z,65.30
2019-04-16T04:59:06.403Z,65.50
2019-04-16T05:00:09.449Z,65.70
2019-04-16T05:01:05.598Z,65.70
2019-04-16T05:02:15.306Z,65.70
2019-04-16T05:03:05.579Z,65.70
2019-04-16T05:04:05.757Z,65.60
2019-04-16T05:05:08.444Z,65.10
2019-04-16T05:06:05.438Z,65.00
2019-04-16T05:07:05.569Z,64.80
2019-04-16T05:08:06.000Z,64.50
2019-04-16T05:09:05.193Z,64.40
2019-04-16T05:10:08.584Z,64.10
2019-04-16T05:11:08.184Z,63.60
2019-04-16T05:12:08.557Z,63.60
2019-04-16T05:13:05.698Z,62.90
2019-04-16T05:14:05.872Z,62.20
2019-04-16T05:15:10.385Z,61.60
2019-04-16T05:16:07.399Z,61.60
2019-04-16T05:17:07.748Z,61.40
2019-04-16T05:18:09.683Z,61.10
2019-04-16T05:19:05.545Z,60.80
2019-04-16T05:20:05.692Z,60.50
2019-04-16T05:21:08.373Z,59.90
2019-04-16T05:22:07.949Z,59.70
2019-04-16T05:23:05.912Z,59.70
2019-04-16T05:24:05.137Z,59.50
2019-04-16T05:25:10.593Z,58.80
2019-04-16T05:26:10.552Z,58.50
2019-04-16T05:27:09.330Z,58.50
2019-04-16T05:28:05.566Z,58.10
2019-04-16T05:29:08.333Z,57.40
2019-04-16T05:30:08.011Z,57.00
2019-04-16T05:31:05.246Z,57.00
2019-04-16T05:32:05.331Z,56.60
2019-04-16T05:33:06.616Z,56.40
2019-04-16T05:34:06.734Z,56.10
2019-04-16T05:35:10.571Z,55.70
2019-04-16T05:36:15.281Z,55.10
2019-04-16T05:37:08.061Z,54.90
2019-04-16T05:38:05.116Z,54.90
2019-04-16T05:39:05.298Z,54.70
2019-04-16T05:40:05.440Z,54.30
2019-04-16T05:41:20.201Z,54.00
2019-04-16T05:42:07.952Z,53.90
2019-04-16T05:43:08.520Z,53.60
2019-04-16T05:44:08.163Z,53.30
2019-04-16T05:45:06.612Z,53.30
2019-04-16T05:46:09.817Z,53.00
2019-04-16T05:47:06.119Z,52.60
2019-04-16T05:48:05.252Z,52.60
2019-04-16T05:49:08.086Z,52.30
2019-04-16T05:50:07.699Z,52.00
2019-04-16T05:51:05.684Z,52.00
2019-04-16T05:52:05.883Z,51.80
2019-04-16T05:53:09.244Z,51.60
2019-04-16T05:54:05.576Z,50.30
2019-04-16T05:55:05.667Z,50.50
2019-04-16T05:56:05.884Z,50.30
2019-04-16T05:57:05.102Z,50.10
2019-04-16T05:58:05.245Z,50.10
2019-04-16T05:59:05.256Z,49.90
2019-04-16T06:00:10.562Z,50.00
2019-04-16T06:01:05.815Z,49.60
2019-04-16T06:02:06.086Z,49.20
2019-04-16T06:03:10.312Z,48.70
2019-04-16T06:04:10.268Z,48.60
2019-04-16T06:05:08.003Z,48.10
2019-04-16T06:06:10.207Z,47.60
2019-04-16T06:07:07.888Z,47.50
2019-04-16T06:08:10.199Z,47.50
2019-04-16T06:09:13.269Z,47.20
2019-04-16T06:10:07.355Z,47.20
2019-04-16T06:11:08.122Z,46.90
2019-04-16T06:12:09.705Z,46.50
2019-04-16T06:13:12.909Z,46.50
2019-04-16T06:14:05.212Z,46.40
2019-04-16T06:15:05.533Z,46.10
2019-04-16T06:16:08.406Z,45.70
2019-04-16T06:17:07.991Z,45.60
2019-04-16T06:18:07.631Z,44.70
2019-04-16T06:19:08.393Z,44.80
2019-04-16T06:20:05.147Z,45.00
2019-04-16T06:21:10.518Z,44.80
2019-04-16T06:22:05.501Z,44.80
2019-04-16T06:23:08.114Z,45.10
2019-04-16T06:24:07.724Z,44.70
2019-04-16T06:25:10.933Z,44.60
2019-04-16T06:26:14.222Z,44.40
2019-04-16T06:27:08.419Z,43.90
2019-04-16T06:28:05.620Z,43.90
2019-04-16T06:29:08.368Z,43.80
2019-04-16T06:30:07.932Z,43.50
2019-04-16T06:31:10.340Z,43.40
2019-04-16T06:32:05.485Z,43.50
2019-04-16T06:33:05.273Z,43.70
2019-04-16T06:34:05.423Z,43.60
2019-04-16T06:35:05.610Z,43.50
2019-04-16T06:36:05.810Z,43.00
2019-04-16T06:37:05.967Z,43.00
2019-04-16T06:38:07.759Z,42.70
2019-04-16T06:39:05.847Z,42.80
2019-04-16T06:40:10.085Z,42.60
2019-04-16T06:41:05.163Z,42.60
2019-04-16T06:42:05.539Z,42.60
2019-04-16T06:43:05.759Z,42.50
2019-04-16T06:44:05.366Z,42.10
2019-04-16T06:45:06.271Z,41.90
2019-04-16T06:46:08.350Z,42.30
2019-04-16T06:47:05.271Z,42.10
2019-04-16T06:48:05.456Z,41.90
2019-04-16T06:49:08.059Z,42.40
2019-04-16T06:50:05.034Z,42.40
2019-04-16T06:51:12.667Z,42.30
2019-04-16T06:52:05.846Z,42.20
2019-04-16T06:53:05.191Z,42.00
2019-04-16T06:54:05.465Z,41.80
2019-04-16T06:55:05.629Z,42.00
2019-04-16T06:56:09.511Z,41.80
2019-04-16T06:57:05.774Z,41.20
2019-04-16T06:58:08.469Z,41.70
2019-04-16T06:59:05.667Z,41.60
2019-04-16T07:00:07.709Z,41.50
2019-04-16T07:01:07.375Z,41.60
2019-04-16T07:02:11.218Z,41.30
2019-04-16T07:03:05.309Z,41.50
2019-04-16T07:04:07.291Z,41.30
2019-04-16T07:05:07.924Z,41.50
2019-04-16T07:06:06.136Z,41.50
2019-04-16T07:07:09.363Z,40.90
2019-04-16T07:08:08.300Z,41.00
2019-04-16T07:09:07.989Z,40.70
2019-04-16T07:10:05.226Z,40.80
2019-04-16T07:11:07.834Z,40.50
2019-04-16T07:12:08.388Z,40.60
2019-04-16T07:13:11.394Z,40.50
2019-04-16T07:14:05.772Z,40.50
2019-04-16T07:15:08.561Z,40.20
2019-04-16T07:16:08.083Z,40.20
2019-04-16T07:17:05.164Z,40.10
2019-04-16T07:18:06.596Z,39.90
2019-04-16T07:19:11.562Z,39.90
2019-04-16T07:20:05.742Z,39.90
2019-04-16T07:21:05.941Z,40.10
2019-04-16T07:22:05.275Z,40.30
2019-04-16T07:23:10.414Z,40.00
2019-04-16T07:24:05.477Z,40.00
2019-04-16T07:25:06.861Z,39.60
2019-04-16T07:26:05.320Z,39.30
2019-04-16T07:27:08.275Z,39.40
2019-04-16T07:28:07.976Z,39.30
2019-04-16T07:29:10.556Z,39.40
2019-04-16T07:30:09.258Z,39.40
2019-04-16T07:31:05.768Z,39.70
2019-04-16T07:32:06.124Z,39.90
2019-04-16T07:33:05.568Z,40.10
2019-04-16T07:34:05.839Z,40.10
2019-04-16T07:35:05.158Z,40.20
2019-04-16T07:36:07.960Z,40.10
2019-04-16T07:37:08.652Z,39.90
2019-04-16T07:38:07.429Z,40.00
2019-04-16T07:39:06.747Z,39.90
2019-04-16T07:40:13.584Z,39.80
2019-04-16T07:41:12.295Z,40.00
2019-04-16T07:43:05.341Z,39.80
2019-04-16T07:43:47.808Z,40.00
2019-04-16T07:44:11.450Z,39.60
2019-04-16T07:45:13.083Z,39.10
2019-04-16T07:46:07.735Z,38.60
2019-04-16T07:47:06.127Z,38.60
2019-04-16T07:48:07.182Z,37.80
2019-04-16T07:49:10.871Z,37.90
2019-04-16T07:50:05.918Z,37.90
2019-04-16T07:51:05.848Z,37.40
2019-04-16T07:52:12.110Z,36.80
2019-04-16T07:53:05.453Z,35.80
2019-04-16T07:54:08.489Z,33.90
2019-04-16T07:55:05.559Z,34.00
2019-04-16T07:56:10.735Z,33.70
2019-04-16T07:57:08.358Z,34.10
2019-04-16T07:58:08.050Z,33.30
2019-04-16T07:59:05.050Z,33.30
2019-04-16T08:00:09.703Z,32.80
2019-04-16T08:01:16.124Z,31.70
2019-04-16T08:02:05.403Z,31.80
2019-04-16T08:03:05.603Z,32.30
2019-04-16T08:04:08.461Z,31.90
2019-04-16T08:05:10.082Z,32.50
2019-04-16T08:06:10.602Z,32.30
2019-04-16T08:07:05.197Z,32.30
2019-04-16T08:08:05.397Z,31.60
2019-04-16T08:09:08.039Z,31.60
2019-04-16T08:10:05.080Z,31.40
2019-04-16T08:11:07.985Z,30.90
2019-04-16T08:12:16.508Z,31.00
2019-04-16T08:13:05.920Z,30.80
2019-04-16T08:14:10.200Z,30.50
2019-04-16T08:15:15.337Z,30.50
2019-04-16T08:16:10.815Z,31.00
2019-04-16T08:17:05.897Z,31.00
2019-04-16T08:18:05.252Z,30.50
2019-04-16T08:19:08.009Z,31.50
2019-04-16T08:20:06.006Z,31.50
2019-04-16T08:21:12.449Z,31.40
2019-04-16T08:22:08.366Z,31.00
2019-04-16T08:23:05.610Z,31.00
2019-04-16T08:24:06.013Z,30.60
2019-04-16T08:25:07.805Z,30.10
2019-04-16T08:26:13.716Z,30.10
2019-04-16T08:27:07.978Z,30.40
2019-04-16T08:28:08.229Z,31.30
2019-04-16T08:29:05.453Z,30.50
2019-04-16T08:30:08.089Z,29.60
2019-04-16T08:31:12.153Z,29.60
2019-04-16T08:32:08.301Z,29.00
2019-04-16T08:33:05.475Z,29.00
2019-04-16T08:34:05.617Z,29.30
2019-04-16T08:35:05.769Z,28.60
2019-04-16T08:36:10.988Z,28.90
2019-04-16T08:37:08.808Z,28.90
2019-04-16T08:38:05.126Z,29.10
2019-04-16T08:39:08.152Z,30.00
2019-04-16T08:40:13.391Z,29.60
2019-04-16T08:41:16.621Z,30.40
2019-04-16T08:42:05.155Z,30.50
2019-04-16T08:43:05.328Z,30.50
2019-04-16T08:44:10.789Z,30.90
2019-04-16T08:45:09.296Z,31.00
2019-04-16T08:46:11.540Z,30.20
2019-04-16T08:47:11.259Z,29.80
2019-04-16T08:48:09.749Z,29.90
2019-04-16T08:49:08.477Z,29.40
2019-04-16T08:50:09.969Z,28.90
2019-04-16T08:51:05.717Z,28.90
2019-04-16T08:52:11.094Z,29.10
2019-04-16T08:53:14.308Z,30.00
2019-04-16T08:54:10.628Z,28.90
2019-04-16T08:55:05.718Z,28.80
2019-04-16T08:56:05.351Z,28.90
2019-04-16T08:57:05.487Z,29.10
2019-04-16T08:58:13.129Z,29.40
2019-04-16T08:59:11.180Z,29.50
2019-04-16T09:00:08.065Z,29.00
2019-04-16T09:01:05.297Z,28.90
2019-04-16T09:02:05.496Z,28.50
2019-04-16T09:03:05.838Z,29.00
2019-04-16T09:04:05.042Z,28.10
2019-04-16T09:05:11.392Z,28.20
2019-04-16T09:06:05.797Z,28.00
2019-04-16T09:07:13.455Z,28.00
2019-04-16T09:08:13.795Z,28.40
2019-04-16T09:09:15.506Z,27.90
2019-04-16T09:10:20.161Z,28.10
2019-04-16T09:11:23.746Z,27.30
2019-04-16T09:12:10.113Z,27.30
2019-04-16T09:13:08.001Z,27.80
2019-04-16T09:14:05.156Z,27.80
2019-04-16T09:15:07.847Z,26.70
2019-04-16T09:16:11.297Z,26.70
2019-04-16T09:17:05.411Z,26.70
2019-04-16T09:18:05.563Z,26.50
2019-04-16T09:19:05.886Z,26.20
2019-04-16T09:20:06.880Z,25.60
2019-04-16T09:21:10.598Z,25.80
2019-04-16T09:22:17.038Z,26.40
2019-04-16T09:23:05.349Z,26.40
2019-04-16T09:24:10.037Z,26.40
2019-04-16T09:25:05.640Z,26.30
2019-04-16T09:26:18.734Z,25.80
2019-04-16T09:27:05.624Z,25.60
2019-04-16T09:28:23.708Z,25.80
2019-04-16T09:29:10.465Z,26.40
2019-04-16T09:30:05.835Z,26.50
2019-04-16T09:31:08.593Z,25.90
2019-04-16T09:32:05.614Z,25.90
2019-04-16T09:33:05.949Z,25.90
2019-04-16T09:34:07.092Z,26.30
2019-04-16T09:35:18.053Z,26.80
2019-04-16T09:36:05.569Z,27.60
2019-04-16T09:37:05.703Z,27.70
2019-04-16T09:38:06.067Z,27.90
2019-04-16T09:39:05.368Z,28.00
2019-04-16T09:40:18.462Z,27.80
2019-04-16T09:41:05.729Z,28.60
2019-04-16T09:42:05.981Z,28.90
2019-04-16T09:43:17.895Z,28.50
2019-04-16T09:44:10.510Z,28.80
2019-04-16T09:45:06.116Z,28.80
2019-04-16T09:46:20.146Z,26.80
2019-04-16T09:47:05.827Z,25.80
2019-04-16T09:48:05.061Z,26.20
2019-04-16T09:49:06.311Z,27.00
2019-04-16T09:50:11.496Z,27.30
2019-04-16T09:51:05.662Z,27.40
2019-04-16T09:52:08.382Z,27.30
2019-04-16T09:53:05.491Z,27.30
2019-04-16T09:54:13.748Z,27.50
2019-04-16T09:55:05.083Z,27.40
2019-04-16T09:56:05.338Z,27.40
2019-04-16T09:57:05.688Z,27.80
2019-04-16T09:58:07.347Z,28.10
2019-04-16T09:59:05.573Z,27.80
2019-04-16T10:00:08.723Z,28.00
2019-04-16T10:01:05.862Z,28.10
2019-04-16T10:02:04.996Z,27.90
2019-04-16T10:03:07.606Z,27.30
2019-04-16T10:04:08.330Z,27.40
2019-04-16T10:05:05.387Z,27.40
2019-04-16T10:06:06.267Z,27.70
2019-04-16T10:07:08.004Z,27.40
2019-04-16T10:08:05.040Z,27.40
2019-04-16T10:09:05.192Z,25.50
2019-04-16T10:10:05.480Z,24.80
2019-04-16T10:11:06.739Z,23.80
2019-04-16T10:12:08.840Z,23.20
2019-04-16T10:13:08.513Z,23.40
2019-04-16T10:14:05.536Z,23.50
2019-04-16T10:15:05.827Z,23.60
2019-04-16T10:16:06.007Z,24.00
2019-04-16T10:17:05.163Z,25.20
2019-04-16T10:18:05.435Z,25.70
2019-04-16T10:19:09.405Z,26.10
2019-04-16T10:20:08.159Z,26.90
2019-04-16T10:21:10.393Z,26.90
2019-04-16T10:22:05.653Z,26.80
2019-04-16T10:23:05.811Z,26.40
2019-04-16T10:24:08.655Z,26.90
2019-04-16T10:25:05.633Z,26.70
2019-04-16T10:26:08.555Z,26.50
2019-04-16T10:27:10.818Z,26.90
2019-04-16T10:28:09.935Z,27.30
2019-04-16T10:29:06.477Z,27.30
2019-04-16T10:30:08.338Z,27.30
2019-04-16T10:31:05.375Z,27.30
2019-04-16T10:32:05.428Z,27.10
2019-04-16T10:33:08.294Z,27.30
2019-04-16T10:34:10.401Z,26.80
2019-04-16T10:35:05.426Z,26.70
2019-04-16T10:36:06.485Z,26.90
2019-04-16T10:37:08.319Z,27.30
2019-04-16T10:38:08.041Z,26.90
2019-04-16T10:39:05.272Z,26.90
2019-04-16T10:40:05.594Z,26.90
2019-04-16T10:41:08.475Z,26.80
2019-04-16T10:42:08.022Z,26.10
2019-04-16T10:43:05.038Z,26.20
2019-04-16T10:44:05.591Z,26.30
2019-04-16T10:45:05.757Z,25.70
2019-04-16T10:46:06.031Z,25.40
2019-04-16T10:47:05.258Z,25.40
2019-04-16T10:48:05.448Z,25.60
2019-04-16T10:49:11.545Z,25.90
2019-04-16T10:50:10.685Z,26.40
2019-04-16T10:51:05.814Z,26.40
2019-04-16T10:52:08.553Z,26.70
2019-04-16T10:53:08.095Z,26.30
2019-04-16T10:54:07.759Z,26.90
2019-04-16T10:55:05.787Z,26.90
2019-04-16T10:56:08.549Z,26.90
2019-04-16T10:57:10.769Z,27.00
2019-04-16T10:58:08.546Z,27.40
2019-04-16T10:59:05.589Z,27.40
2019-04-16T11:00:05.879Z,27.10
2019-04-16T11:01:06.074Z,26.80
2019-04-16T11:02:10.832Z,25.50
2019-04-16T11:03:05.104Z,25.80
2019-04-16T11:04:08.923Z,26.00
2019-04-16T11:05:10.251Z,24.50
2019-04-16T11:06:05.472Z,24.40
2019-04-16T11:07:08.199Z,23.20
2019-04-16T11:08:08.379Z,23.20
2019-04-16T11:09:05.657Z,23.00
2019-04-16T11:10:11.633Z,23.10
2019-04-16T11:11:05.995Z,23.20
2019-04-16T11:12:06.341Z,24.70
2019-04-16T11:13:05.606Z,24.80
2019-04-16T11:14:05.646Z,24.90
2019-04-16T11:15:05.850Z,25.10
2019-04-16T11:16:07.583Z,23.70
2019-04-16T11:17:05.967Z,23.70
2019-04-16T11:18:07.823Z,24.40
2019-04-16T11:19:08.337Z,25.10
2019-04-16T11:20:10.567Z,23.70
2019-04-16T11:21:08.424Z,24.00
2019-04-16T11:22:06.028Z,24.10
2019-04-16T11:23:12.833Z,24.30
2019-04-16T11:24:08.641Z,24.50
2019-04-16T11:25:05.865Z,24.50
2019-04-16T11:26:07.576Z,25.30
2019-04-16T11:27:05.548Z,25.30
2019-04-16T11:28:05.814Z,25.10
2019-04-16T11:29:06.048Z,25.40
2019-04-16T11:30:05.336Z,25.70
2019-04-16T11:31:05.664Z,25.60
2019-04-16T11:32:08.461Z,25.00
2019-04-16T11:33:05.683Z,25.00
2019-04-16T11:34:08.433Z,24.90
2019-04-16T11:35:05.507Z,24.90
2019-04-16T11:36:21.364Z,25.50
2019-04-16T11:37:09.841Z,25.80
2019-04-16T11:38:06.175Z,25.90
2019-04-16T11:39:05.506Z,25.30
2019-04-16T11:40:06.131Z,25.40
2019-04-16T11:41:05.334Z,25.40
2019-04-16T11:42:05.634Z,25.20
2019-04-16T11:43:08.510Z,25.40
2019-04-16T11:44:17.272Z,25.40
2019-04-16T11:45:05.615Z,25.00
2019-04-16T11:46:08.384Z,24.80
2019-04-16T11:47:08.282Z,25.20
2019-04-16T11:48:05.322Z,25.30
2019-04-16T11:49:05.610Z,24.80
2019-04-16T11:50:05.764Z,25.20
2019-04-16T11:51:08.627Z,24.60
2019-04-16T11:52:08.307Z,25.00
2019-04-16T11:53:05.805Z,25.00
2019-04-16T11:54:06.242Z,25.10
2019-04-16T11:55:05.971Z,24.70
2019-04-16T11:56:05.149Z,25.10
2019-04-16T11:57:08.098Z,25.40
2019-04-16T11:58:07.795Z,25.30
2019-04-16T11:59:06.016Z,25.30
2019-04-16T12:00:08.727Z,25.10
2019-04-16T12:01:08.577Z,25.30
2019-04-16T12:02:05.706Z,25.30
2019-04-16T12:03:08.645Z,24.80
2019-04-16T12:04:05.736Z,24.80
2019-04-16T12:05:06.293Z,24.90
2019-04-16T12:06:05.518Z,25.10
2019-04-16T12:07:10.809Z,24.70
2019-04-16T12:08:05.879Z,24.70
2019-04-16T12:09:05.090Z,25.00
2019-04-16T12:10:05.346Z,24.90
2019-04-16T12:11:08.204Z,24.80
2019-04-16T12:12:05.292Z,24.70
2019-04-16T12:13:07.985Z,24.80
2019-04-16T12:14:12.950Z,25.00
2019-04-16T12:15:05.994Z,25.10
2019-04-16T12:16:05.226Z,24.70
2019-04-16T12:17:08.161Z,25.00
2019-04-16T12:18:05.273Z,25.00
2019-04-16T12:19:05.554Z,24.80
2019-04-16T12:20:06.082Z,25.30
2019-04-16T12:21:05.247Z,25.10
2019-04-16T12:22:07.977Z,24.90
2019-04-16T12:23:08.756Z,24.80
2019-04-16T12:24:08.426Z,24.80
2019-04-16T12:25:05.586Z,24.80
2019-04-16T12:26:10.404Z,24.90
2019-04-16T12:27:05.563Z,24.90
2019-04-16T12:28:12.463Z,25.00
2019-04-16T12:29:05.925Z,24.40
2019-04-16T12:30:10.249Z,24.90
2019-04-16T12:31:09.387Z,24.50
2019-04-16T12:32:06.041Z,24.50
2019-04-16T12:33:11.702Z,24.60
2019-04-16T12:34:05.552Z,24.80
2019-04-16T12:35:06.021Z,24.70
2019-04-16T12:36:05.216Z,24.50
2019-04-16T12:37:05.445Z,23.60
2019-04-16T12:38:16.401Z,24.20
2019-04-16T12:39:05.101Z,24.20
2019-04-16T12:40:07.858Z,24.30
2019-04-16T12:41:08.590Z,24.40
2019-04-16T12:42:06.154Z,24.50
2019-04-16T12:43:05.530Z,24.40
2019-04-16T12:44:05.732Z,24.60
2019-04-16T12:45:09.497Z,24.40
2019-04-16T12:46:05.801Z,24.50
2019-04-16T12:47:11.010Z,24.40
2019-04-16T12:48:07.666Z,23.70
2019-04-16T12:49:05.970Z,23.60
2019-04-16T12:50:08.063Z,23.30
2019-04-16T12:51:07.760Z,23.10
2019-04-16T12:52:08.524Z,23.20
2019-04-16T12:53:10.820Z,23.00